Time;durP1;ratioP1;P1;durP2;ratioP2;P2;SDS_P1;SDS_P2;PMS_P1;PMS_P2;Temp;Humidity;BMP_temperature;BMP_pressure;BME280_temperature;BME280_humidity;BME280_pressure;Samples;Min_cycle;Max_cycle;Signal;HPM_P1;HPM_P2
2021/07/22 00:01:30;;;;;;;9.85;6.47;;;;;;;;;;5091398;28;20379;-80
2021/07/22 00:03:55;;;;;;;10.32;6.95;;;;;;;;;;5073940;28;20039;-80
2021/07/22 00:06:20;;;;;;;12.00;7.03;;;;;;;;;;5090775;28;20135;-80
2021/07/22 00:08:46;;;;;;;10.20;7.60;;;;;;;;;;5075550;28;20051;-80
2021/07/22 00:11:12;;;;;;;7.88;6.10;;;;;;;;;;5090461;28;20029;-80
2021/07/22 00:13:37;;;;;;;13.57;7.70;;;;;;;;;;5073605;28;20460;-80
2021/07/22 00:16:03;;;;;;;12.10;7.25;;;;;;;;;;5066433;28;20032;-80
2021/07/22 00:18:32;;;;;;;10.45;6.25;;;;;;;;;;5080705;28;20123;-80
2021/07/22 00:20:57;;;;;;;9.20;5.85;;;;;;;;;;5080733;28;20036;-80
2021/07/22 00:23:23;;;;;;;9.63;6.32;;;;;;;;;;5080717;28;20146;-80
2021/07/22 00:25:48;;;;;;;9.50;7.10;;;;;;;;;;5114351;28;20036;-80
2021/07/22 00:28:14;;;;;;;15.05;7.40;;;;;;;;;;5098019;28;20039;-80
2021/07/22 00:30:40;;;;;;;12.40;7.03;;;;;;;;;;5097295;28;20119;-80
2021/07/22 00:33:07;;;;;;;12.98;7.30;;;;;;;;;;5097789;28;20039;-80
2021/07/22 00:35:33;;;;;;;9.57;7.70;;;;;;;;;;5097880;28;20491;-80
2021/07/22 00:38:00;;;;;;;10.93;8.10;;;;;;;;;;5097388;28;20059;-80
2021/07/22 00:40:26;;;;;;;12.75;6.47;;;;;;;;;;5097506;28;20157;-80
2021/07/22 00:42:57;;;;;;;8.43;5.68;;;;;;;;;;5081123;28;20032;-80
2021/07/22 00:45:22;;;;;;;8.93;6.10;;;;;;;;;;5093767;28;20368;-80
2021/07/22 00:47:49;;;;;;;9.10;6.25;;;;;;;;;;5060204;28;20036;-80
2021/07/22 00:50:14;;;;;;;9.38;6.28;;;;;;;;;;5076153;28;20103;-80
2021/07/22 00:52:41;;;;;;;9.48;6.53;;;;;;;;;;5060196;28;20253;-80
2021/07/22 00:55:08;;;;;;;8.65;6.68;;;;;;;;;;5059975;28;20025;-80
2021/07/22 00:57:35;;;;;;;8.43;6.32;;;;;;;;;;5060231;28;20028;-80
2021/07/22 01:00:01;;;;;;;10.15;7.07;;;;;;;;;;5060531;28;20120;-80
2021/07/22 01:02:28;;;;;;;10.75;7.13;;;;;;;;;;5076231;28;20036;-79
2021/07/22 01:04:53;;;;;;;9.40;6.63;;;;;;;;;;5076107;28;20043;-79
2021/07/22 01:07:20;;;;;;;13.30;8.15;;;;;;;;;;5076341;28;20036;-80
2021/07/22 01:09:49;;;;;;;12.38;6.30;;;;;;;;;;5060222;28;20055;-79
2021/07/22 01:12:14;;;;;;;8.88;6.50;;;;;;;;;;5076411;28;20040;-80
2021/07/22 01:14:43;;;;;;;10.45;7.07;;;;;;;;;;5059897;28;20040;-80
2021/07/22 01:17:19;;;;;;;12.65;7.72;;;;;;;;;;5059255;28;20028;-80
2021/07/22 01:19:44;;;;;;;;;;;;;;;;;;5094557;28;20567;-80
2021/07/22 01:22:11;;;;;;;11.27;7.65;;;;;;;;;;5093107;28;19919;-80
2021/07/22 01:24:37;;;;;;;15.35;8.02;;;;;;;;;;5078765;28;20077;-80
2021/07/22 01:27:06;;;;;;;10.85;7.78;;;;;;;;;;5071793;28;20032;-80
2021/07/22 01:29:57;;;;;;;10.52;7.07;;;;;;;;;;5054731;28;20044;-80
2021/07/22 01:32:25;;;;;;;11.52;7.90;;;;;;;;;;5072834;28;20033;-81
2021/07/22 01:34:52;;;;;;;8.88;6.88;;;;;;;;;;5040227;28;20035;-80
2021/07/22 01:37:22;;;;;;;9.35;7.03;;;;;;;;;;5040359;28;20061;-80
2021/07/22 01:39:48;;;;;;;14.15;7.35;;;;;;;;;;5039696;28;20059;-80
2021/07/22 01:42:15;;;;;;;9.52;7.05;;;;;;;;;;5056611;28;20464;-80
2021/07/22 01:44:42;;;;;;;10.15;7.68;;;;;;;;;;5056795;28;20534;-80
2021/07/22 01:47:08;;;;;;;17.45;8.25;;;;;;;;;;5056298;28;20037;-80
2021/07/22 01:49:34;;;;;;;12.10;7.80;;;;;;;;;;5076497;28;20041;-80
2021/07/22 01:52:04;;;;;;;11.05;8.45;;;;;;;;;;5076265;28;20033;-80
2021/07/22 01:54:32;;;;;;;13.13;7.90;;;;;;;;;;5059610;28;20390;-80
2021/07/22 01:56:59;;;;;;;14.45;8.48;;;;;;;;;;5059249;28;20101;-80
2021/07/22 01:59:35;;;;;;;10.35;7.65;;;;;;;;;;5075817;28;20036;-80
2021/07/22 02:02:06;;;;;;;13.48;8.30;;;;;;;;;;5059472;28;20056;-80
2021/07/22 02:04:35;;;;;;;12.07;8.70;;;;;;;;;;5075950;28;20032;-80
2021/07/22 02:07:00;;;;;;;12.70;8.43;;;;;;;;;;5058719;28;20283;-80
2021/07/22 02:09:26;;;;;;;20.02;8.40;;;;;;;;;;5058980;28;20109;-80
2021/07/22 02:11:57;;;;;;;11.77;8.43;;;;;;;;;;5075684;28;20143;-80
2021/07/22 02:14:25;;;;;;;18.38;9.40;;;;;;;;;;5059025;28;20032;-80
2021/07/22 02:16:56;;;;;;;11.30;7.90;;;;;;;;;;5074627;28;20179;-82
2021/07/22 02:19:22;;;;;;;11.90;8.10;;;;;;;;;;5058628;28;20082;-79
2021/07/22 02:21:54;;;;;;;11.98;7.97;;;;;;;;;;5059428;28;20094;-78
2021/07/22 02:24:21;;;;;;;11.43;7.75;;;;;;;;;;5059418;28;20127;-79
2021/07/22 02:26:57;;;;;;;12.05;8.18;;;;;;;;;;5061367;28;20032;-79
2021/07/22 02:29:24;;;;;;;9.73;7.28;;;;;;;;;;5059105;28;20029;-79
2021/07/22 02:31:49;;;;;;;12.68;7.72;;;;;;;;;;5058998;28;20400;-80
2021/07/22 02:34:16;;;;;;;10.82;7.07;;;;;;;;;;5076207;28;20032;-79
2021/07/22 02:36:41;;;;;;;13.57;7.97;;;;;;;;;;5076123;28;20031;-79
2021/07/22 02:39:30;;;;;;;13.68;8.70;;;;;;;;;;5067750;28;20036;-79
2021/07/22 02:41:55;;;;;;;17.55;8.90;;;;;;;;;;5075560;28;20170;-79
2021/07/22 02:44:21;;;;;;;10.32;7.30;;;;;;;;;;5059276;28;20027;-79
2021/07/22 02:47:00;;;;;;;15.05;8.60;;;;;;;;;;5060745;28;20558;-79
2021/07/22 02:49:30;;;;;;;12.75;7.60;;;;;;;;;;5058928;28;20113;-79
2021/07/22 02:51:57;;;;;;;12.98;8.10;;;;;;;;;;5059528;28;20105;-79
2021/07/22 02:54:23;;;;;;;11.00;7.65;;;;;;;;;;5059318;28;20420;-81
2021/07/22 02:56:49;;;;;;;14.55;8.07;;;;;;;;;;5059055;28;20032;-76
2021/07/22 02:59:22;;;;;;;13.13;8.15;;;;;;;;;;5075337;28;20052;-79
2021/07/22 03:01:48;;;;;;;15.80;8.68;;;;;;;;;;5074311;28;20058;-77
2021/07/22 03:04:19;;;;;;;13.48;8.07;;;;;;;;;;5055650;28;20116;-77
2021/07/22 03:06:53;;;;;;;12.60;7.53;;;;;;;;;;5073295;28;20036;-78
2021/07/22 03:09:19;;;;;;;17.20;8.57;;;;;;;;;;5071702;28;20041;-77
2021/07/22 03:11:47;;;;;;;17.80;8.57;;;;;;;;;;5054665;28;20032;-77
2021/07/22 03:14:13;;;;;;;14.38;7.90;;;;;;;;;;5071273;28;20047;-77
2021/07/22 03:16:41;;;;;;;13.45;8.15;;;;;;;;;;5071148;28;20043;-77
2021/07/22 03:19:14;;;;;;;16.05;8.35;;;;;;;;;;5055111;28;20025;-77
2021/07/22 03:21:57;;;;;;;14.20;8.88;;;;;;;;;;5072057;28;20036;-78
2021/07/22 03:24:51;;;;;;;13.63;8.23;;;;;;;;;;5100541;28;20075;-77
2021/07/22 03:27:37;;;;;;;11.63;8.45;;;;;;;;;;5081834;28;20032;-77
2021/07/22 03:30:05;;;;;;;11.88;7.97;;;;;;;;;;5078847;28;20490;-77
2021/07/22 03:32:37;;;;;;;14.30;8.70;;;;;;;;;;5079087;28;20059;-77
2021/07/22 03:35:03;;;;;;;12.15;8.07;;;;;;;;;;5078817;28;20069;-77
2021/07/22 03:37:36;;;;;;;12.80;8.15;;;;;;;;;;5095837;28;20046;-77
2021/07/22 03:40:05;;;;;;;15.57;8.48;;;;;;;;;;5113615;28;20095;-77
2021/07/22 03:42:32;;;;;;;10.23;7.72;;;;;;;;;;5078722;28;20492;-77
2021/07/22 03:45:18;;;;;;;11.52;7.30;;;;;;;;;;5098146;28;20060;-77
2021/07/22 03:47:47;;;;;;;12.10;7.93;;;;;;;;;;5079184;28;20125;-77
2021/07/22 03:50:14;;;;;;;13.20;8.15;;;;;;;;;;5095275;28;20043;-77
2021/07/22 03:52:43;;;;;;;12.00;7.97;;;;;;;;;;5083050;28;20035;-77
2021/07/22 03:55:11;;;;;;;13.32;9.07;;;;;;;;;;5099093;28;20077;-76
2021/07/22 03:58:09;;;;;;;15.57;9.73;;;;;;;;;;5072375;28;20039;-77
2021/07/22 04:00:46;;;;;;;9.65;8.15;;;;;;;;;;5084167;28;20451;-77
2021/07/22 04:03:12;;;;;;;14.32;8.40;;;;;;;;;;5082586;28;20032;-77
2021/07/22 04:05:41;;;;;;;14.27;9.18;;;;;;;;;;5099287;28;20498;-77
2021/07/22 04:08:07;;;;;;;15.82;9.18;;;;;;;;;;5099195;28;20038;-77
2021/07/22 04:11:08;;;;;;;13.27;8.30;;;;;;;;;;5087334;28;20032;-77
2021/07/22 04:13:41;;;;;;;10.73;8.18;;;;;;;;;;5098821;28;20112;-77
2021/07/22 04:16:36;;;;;;;12.02;8.60;;;;;;;;;;5112067;27;20047;-77
2021/07/22 04:19:06;;;;;;;12.15;8.75;;;;;;;;;;5103468;27;20042;-77
2021/07/22 04:21:55;;;;;;;11.98;8.85;;;;;;;;;;5105581;27;20135;-77
2021/07/22 04:24:35;;;;;;;13.60;8.35;;;;;;;;;;5103183;27;20054;-77
2021/07/22 04:27:29;;;;;;;15.50;8.77;;;;;;;;;;5114932;27;20042;-77
2021/07/22 04:30:12;;;;;;;13.77;9.50;;;;;;;;;;5122069;27;20495;-77
2021/07/22 04:32:57;;;;;;;16.02;9.32;;;;;;;;;;5118627;27;20031;-77
2021/07/22 04:35:41;;;;;;;17.05;9.50;;;;;;;;;;5118554;27;20038;-77
2021/07/22 04:38:14;;;;;;;16.05;9.77;;;;;;;;;;5118848;27;20043;-77
2021/07/22 04:41:12;;;;;;;13.07;9.15;;;;;;;;;;5115061;27;20095;-77
2021/07/22 04:43:56;;;;;;;13.27;9.35;;;;;;;;;;5118600;27;20023;-77
2021/07/22 04:46:59;;;;;;;12.60;9.25;;;;;;;;;;5078471;28;20040;-77
2021/07/22 04:49:43;;;;;;;14.30;9.32;;;;;;;;;;5079096;28;20051;-77
2021/07/22 04:52:17;;;;;;;13.50;9.00;;;;;;;;;;5079329;28;20032;-77
2021/07/22 04:54:57;;;;;;;17.67;9.23;;;;;;;;;;5077377;28;20062;-77
2021/07/22 04:57:23;;;;;;;13.50;8.85;;;;;;;;;;5077938;28;20060;-77
2021/07/22 04:59:49;;;;;;;15.50;9.63;;;;;;;;;;5079633;28;20063;-77
2021/07/22 05:02:16;;;;;;;14.23;9.68;;;;;;;;;;5097694;28;20027;-77
2021/07/22 05:04:43;;;;;;;17.02;9.65;;;;;;;;;;5097990;28;20389;-77
2021/07/22 05:07:09;;;;;;;15.93;9.95;;;;;;;;;;5097863;28;20035;-77
2021/07/22 05:09:34;;;;;;;13.73;9.30;;;;;;;;;;5116123;28;20085;-77
2021/07/22 05:12:08;;;;;;;11.60;9.70;;;;;;;;;;5097837;28;20039;-77
2021/07/22 05:14:42;;;;;;;13.30;9.57;;;;;;;;;;5081568;28;20035;-77
2021/07/22 05:17:40;;;;;;;11.80;9.18;;;;;;;;;;5104518;28;20024;-77
2021/07/22 05:20:24;;;;;;;13.15;9.23;;;;;;;;;;5115791;28;20095;-77
2021/07/22 05:23:01;;;;;;;12.05;9.43;;;;;;;;;;5081006;28;20028;-77
2021/07/22 05:25:52;;;;;;;15.00;9.10;;;;;;;;;;5097901;28;20035;-77
2021/07/22 05:28:41;;;;;;;13.48;9.32;;;;;;;;;;5099658;28;20043;-77
2021/07/22 05:31:23;;;;;;;16.17;9.18;;;;;;;;;;5098886;28;20028;-77
2021/07/22 05:34:04;;;;;;;14.55;9.20;;;;;;;;;;5079037;28;20382;-77
2021/07/22 05:36:44;;;;;;;10.48;8.60;;;;;;;;;;5076677;28;20036;-77
2021/07/22 05:39:19;;;;;;;17.67;9.85;;;;;;;;;;5076672;28;20023;-77
2021/07/22 05:41:44;;;;;;;12.35;8.68;;;;;;;;;;5076402;28;20123;-77
2021/07/22 05:44:10;;;;;;;17.05;9.35;;;;;;;;;;5059408;28;20085;-77
2021/07/22 05:46:35;;;;;;;13.80;8.80;;;;;;;;;;5076476;28;20043;-77
2021/07/22 05:49:01;;;;;;;16.38;9.02;;;;;;;;;;5093956;28;20043;-77
2021/07/22 05:51:26;;;;;;;12.52;9.48;;;;;;;;;;5059707;28;20031;-77
2021/07/22 05:53:52;;;;;;;11.65;8.93;;;;;;;;;;5076548;28;20559;-77
2021/07/22 05:56:18;;;;;;;15.27;9.35;;;;;;;;;;5059391;28;20031;-77
2021/07/22 05:58:44;;;;;;;11.48;9.05;;;;;;;;;;5076384;28;20380;-77
2021/07/22 06:01:11;;;;;;;18.45;9.73;;;;;;;;;;5072819;28;20470;-77
2021/07/22 06:03:36;;;;;;;13.15;9.15;;;;;;;;;;5113473;28;20092;-77
2021/07/22 06:06:04;;;;;;;12.68;9.52;;;;;;;;;;5096449;28;20047;-77
2021/07/22 06:08:29;;;;;;;12.65;9.30;;;;;;;;;;5113297;28;20402;-77
2021/07/22 06:10:55;;;;;;;14.50;9.63;;;;;;;;;;5096375;28;20092;-77
2021/07/22 06:13:20;;;;;;;16.65;8.85;;;;;;;;;;5113869;28;20150;-77
2021/07/22 06:15:46;;;;;;;14.13;8.73;;;;;;;;;;5096665;28;20042;-78
2021/07/22 06:18:12;;;;;;;14.77;8.40;;;;;;;;;;5097930;28;20020;-77
2021/07/22 06:20:39;;;;;;;13.13;9.60;;;;;;;;;;5079726;28;20096;-78
2021/07/22 06:23:05;;;;;;;13.50;9.45;;;;;;;;;;5096663;28;20116;-78
2021/07/22 06:25:30;;;;;;;17.75;9.55;;;;;;;;;;5082066;28;20397;-79
2021/07/22 06:27:56;;;;;;;17.98;9.40;;;;;;;;;;5081310;28;20122;-78
2021/07/22 06:30:21;;;;;;;14.15;9.85;;;;;;;;;;5074556;28;20431;-77
2021/07/22 06:32:48;;;;;;;15.73;10.68;;;;;;;;;;5060787;28;20031;-79
2021/07/22 06:35:15;;;;;;;13.35;9.50;;;;;;;;;;5078482;28;20537;-80
2021/07/22 06:37:46;;;;;;;13.95;9.18;;;;;;;;;;5059086;28;20030;-78
2021/07/22 06:40:14;;;;;;;15.13;9.00;;;;;;;;;;5076458;28;20043;-78
2021/07/22 06:42:41;;;;;;;18.77;10.93;;;;;;;;;;5059486;28;20387;-77
2021/07/22 06:45:07;;;;;;;15.10;10.32;;;;;;;;;;5076304;28;20040;-80
2021/07/22 06:47:37;;;;;;;14.52;10.10;;;;;;;;;;5076325;28;20038;-78
2021/07/22 06:50:03;;;;;;;15.25;9.82;;;;;;;;;;5075729;28;20521;-77
2021/07/22 06:52:29;;;;;;;12.20;9.07;;;;;;;;;;5075229;28;20032;-75
2021/07/22 06:54:54;;;;;;;17.30;9.65;;;;;;;;;;5093239;28;20028;-76
2021/07/22 06:57:19;;;;;;;15.52;8.77;;;;;;;;;;5092428;28;20036;-76
2021/07/22 06:59:46;;;;;;;12.77;8.68;;;;;;;;;;5077498;28;20384;-75
2021/07/22 07:02:12;;;;;;;12.43;9.25;;;;;;;;;;5113342;28;20031;-76
2021/07/22 07:04:37;;;;;;;12.20;9.48;;;;;;;;;;5096047;28;20032;-76
2021/07/22 07:07:02;;;;;;;16.55;8.70;;;;;;;;;;5095202;28;20545;-75
2021/07/22 07:09:28;;;;;;;13.20;9.85;;;;;;;;;;5111956;28;20039;-76
2021/07/22 07:11:54;;;;;;;13.20;9.30;;;;;;;;;;5095524;28;20086;-79
2021/07/22 07:14:19;;;;;;;14.82;9.68;;;;;;;;;;5097229;28;20487;-77
2021/07/22 07:16:45;;;;;;;12.90;9.32;;;;;;;;;;5096277;28;20039;-77
2021/07/22 07:19:10;;;;;;;15.05;9.80;;;;;;;;;;5078078;28;20043;-76
2021/07/22 07:21:39;;;;;;;14.60;10.57;;;;;;;;;;5112807;28;20035;-76
2021/07/22 07:24:05;;;;;;;14.57;9.32;;;;;;;;;;5065102;28;20738;-77
2021/07/22 07:26:31;;;;;;;13.35;9.40;;;;;;;;;;5072448;28;20034;-76
2021/07/22 07:28:57;;;;;;;13.98;9.50;;;;;;;;;;5059072;28;20059;-76
2021/07/22 07:31:23;;;;;;;13.70;9.65;;;;;;;;;;5076667;28;20064;-76
2021/07/22 07:33:49;;;;;;;17.52;10.77;;;;;;;;;;5075974;28;20190;-76
2021/07/22 07:36:16;;;;;;;16.70;10.43;;;;;;;;;;5059623;28;20097;-77
2021/07/22 07:38:41;;;;;;;14.60;10.00;;;;;;;;;;5076375;28;20036;-76
2021/07/22 07:41:07;;;;;;;13.93;10.15;;;;;;;;;;5075994;28;20033;-77
2021/07/22 07:43:32;;;;;;;15.48;10.70;;;;;;;;;;5076929;28;20472;-76
2021/07/22 07:45:58;;;;;;;16.58;11.05;;;;;;;;;;5076578;28;20036;-77
2021/07/22 07:48:23;;;;;;;14.40;9.32;;;;;;;;;;5076700;28;20074;-76
2021/07/22 07:50:49;;;;;;;14.13;10.00;;;;;;;;;;5076626;28;20031;-76
2021/07/22 07:53:16;;;;;;;15.48;9.73;;;;;;;;;;5074090;28;20064;-75
2021/07/22 07:55:42;;;;;;;12.32;9.45;;;;;;;;;;5074513;28;20456;-74
2021/07/22 07:58:08;;;;;;;13.52;10.27;;;;;;;;;;5076249;28;20028;-76
2021/07/22 08:00:34;;;;;;;16.42;10.88;;;;;;;;;;5074769;28;20043;-76
2021/07/22 08:03:00;;;;;;;14.60;10.27;;;;;;;;;;5074532;28;20071;-75
2021/07/22 08:05:26;;;;;;;17.85;10.90;;;;;;;;;;5075758;28;20036;-76
2021/07/22 08:07:51;;;;;;;20.02;11.63;;;;;;;;;;5075911;28;20036;-75
2021/07/22 08:10:17;;;;;;;12.18;9.60;;;;;;;;;;5076140;28;20471;-75
2021/07/22 08:12:42;;;;;;;14.60;10.20;;;;;;;;;;5076166;28;20036;-75
2021/07/22 08:15:10;;;;;;;16.25;9.85;;;;;;;;;;5075500;28;20039;-75
2021/07/22 08:17:37;;;;;;;13.77;10.45;;;;;;;;;;5074211;28;20472;-76
2021/07/22 08:20:06;;;;;;;16.15;10.27;;;;;;;;;;5074655;28;20032;-76
2021/07/22 08:22:33;;;;;;;15.15;11.55;;;;;;;;;;5058192;28;20035;-76
2021/07/22 08:24:59;;;;;;;13.93;10.60;;;;;;;;;;5074575;28;20067;-76
2021/07/22 08:27:34;;;;;;;13.52;10.20;;;;;;;;;;5091474;28;20440;-75
2021/07/22 08:29:59;;;;;;;16.63;11.05;;;;;;;;;;5057452;28;20047;-76
2021/07/22 08:32:25;;;;;;;13.60;10.25;;;;;;;;;;5075119;28;20040;-77
2021/07/22 08:34:51;;;;;;;18.20;10.88;;;;;;;;;;5074185;28;20028;-76
2021/07/22 08:37:18;;;;;;;25.17;12.00;;;;;;;;;;5090765;28;20032;-77
2021/07/22 08:39:50;;;;;;;15.57;10.65;;;;;;;;;;5074944;28;20407;-78
2021/07/22 08:42:16;;;;;;;18.02;10.27;;;;;;;;;;5092652;28;20036;-79
2021/07/22 08:44:43;;;;;;;14.30;10.57;;;;;;;;;;5070096;28;20502;-78
2021/07/22 08:47:10;;;;;;;17.10;10.68;;;;;;;;;;5072078;28;20028;-80
2021/07/22 08:49:38;;;;;;;15.55;10.63;;;;;;;;;;5078791;28;20025;-80
2021/07/22 08:52:09;;;;;;;17.80;10.63;;;;;;;;;;5073817;28;20028;-79
2021/07/22 08:54:35;;;;;;;13.93;10.07;;;;;;;;;;5073375;28;20037;-79
2021/07/22 08:57:02;;;;;;;17.17;10.25;;;;;;;;;;5058833;28;20127;-79
2021/07/22 08:59:29;;;;;;;13.20;9.93;;;;;;;;;;5073661;28;20060;-80
2021/07/22 09:01:56;;;;;;;16.23;11.80;;;;;;;;;;5073604;28;20037;-80
2021/07/22 09:04:21;;;;;;;14.10;10.30;;;;;;;;;;5056388;28;20044;-79
2021/07/22 09:06:48;;;;;;;13.93;10.48;;;;;;;;;;5072654;28;20032;-79
2021/07/22 09:09:16;;;;;;;17.30;11.02;;;;;;;;;;5056856;28;20033;-79
2021/07/22 09:11:55;;;;;;;10.85;8.27;;;;;;;;;;5056495;28;20033;-79
2021/07/22 09:14:21;;;;;;;12.23;9.68;;;;;;;;;;5059976;28;20036;-80
2021/07/22 09:16:47;;;;;;;17.33;10.02;;;;;;;;;;5078801;28;20086;-81
2021/07/22 09:19:36;;;;;;;16.77;10.07;;;;;;;;;;5094805;28;20033;-80
2021/07/22 09:22:06;;;;;;;13.80;9.15;;;;;;;;;;5072164;28;20059;-80
2021/07/22 09:24:53;;;;;;;11.68;8.85;;;;;;;;;;5079010;28;20050;-82
2021/07/22 09:27:42;;;;;;;18.45;9.13;;;;;;;;;;5063782;28;20384;-84
2021/07/22 09:30:19;;;;;;;11.02;8.98;;;;;;;;;;5077452;28;20392;-83
2021/07/22 09:32:48;;;;;;;12.32;8.73;;;;;;;;;;5078158;28;20033;-82
2021/07/22 09:35:22;;;;;;;10.85;8.40;;;;;;;;;;5063305;28;20399;-84
2021/07/22 09:37:56;;;;;;;10.73;8.37;;;;;;;;;;5062705;28;20028;-83
2021/07/22 09:40:24;;;;;;;19.75;10.73;;;;;;;;;;5066111;28;20298;-80
2021/07/22 09:42:50;;;;;;;12.85;10.05;;;;;;;;;;5060568;28;20464;-81
2021/07/22 09:45:24;;;;;;;13.27;9.98;;;;;;;;;;5063216;28;20033;-82
2021/07/22 09:47:50;;;;;;;15.55;10.77;;;;;;;;;;5083295;28;20033;-81
2021/07/22 09:50:18;;;;;;;13.98;9.77;;;;;;;;;;5065090;28;20033;-82
2021/07/22 09:52:46;;;;;;;12.43;9.15;;;;;;;;;;5059475;28;20105;-81
2021/07/22 09:55:28;;;;;;;12.98;9.23;;;;;;;;;;5059066;28;20041;-82
2021/07/22 09:57:59;;;;;;;11.35;9.52;;;;;;;;;;5058243;28;20033;-80
2021/07/22 10:00:26;;;;;;;12.63;9.25;;;;;;;;;;5042797;28;20048;-82
2021/07/22 10:02:53;;;;;;;11.68;8.50;;;;;;;;;;5041193;28;20044;-83
2021/07/22 10:05:25;;;;;;;16.08;9.05;;;;;;;;;;5043432;28;20037;-84
2021/07/22 10:07:52;;;;;;;11.40;8.43;;;;;;;;;;5040307;28;20558;-82
2021/07/22 10:10:19;;;;;;;11.73;8.93;;;;;;;;;;5057744;28;20056;-84
2021/07/22 10:12:51;;;;;;;14.55;9.70;;;;;;;;;;5040284;28;20127;-82
2021/07/22 10:15:20;;;;;;;10.23;7.97;;;;;;;;;;5049668;28;20028;-82
2021/07/22 10:17:47;;;;;;;11.40;8.95;;;;;;;;;;5059914;28;20033;-83
2021/07/22 10:20:14;;;;;;;10.85;8.32;;;;;;;;;;5078546;28;20045;-83
2021/07/22 10:22:42;;;;;;;12.30;8.20;;;;;;;;;;5076744;28;20039;-83
2021/07/22 10:25:11;;;;;;;12.23;8.82;;;;;;;;;;5077181;28;20041;-85
2021/07/22 10:27:36;;;;;;;13.30;8.77;;;;;;;;;;5058319;28;20048;-84
2021/07/22 10:30:07;;;;;;;12.65;8.02;;;;;;;;;;5059371;28;20040;-82
2021/07/22 10:32:34;;;;;;;12.80;8.50;;;;;;;;;;5075249;28;20526;-85
2021/07/22 10:35:00;;;;;;;10.07;7.53;;;;;;;;;;5076806;28;20056;-82
2021/07/22 10:37:26;;;;;;;12.02;8.13;;;;;;;;;;5059677;28;20112;-81
2021/07/22 10:40:09;;;;;;;10.13;8.23;;;;;;;;;;5075817;28;20060;-83
2021/07/22 10:42:51;;;;;;;10.13;7.88;;;;;;;;;;5059262;28;20119;-84
2021/07/22 10:45:24;;;;;;;11.45;8.15;;;;;;;;;;5059691;28;20025;-84
2021/07/22 10:47:58;;;;;;;11.85;8.73;;;;;;;;;;5059560;28;20360;-84
2021/07/22 10:50:43;;;;;;;12.60;7.85;;;;;;;;;;5061807;28;20036;-81
2021/07/22 10:53:09;;;;;;;13.10;8.20;;;;;;;;;;5064753;28;20139;-83
2021/07/22 10:55:43;;;;;;;9.55;7.45;;;;;;;;;;5076702;28;20032;-80
2021/07/22 10:58:24;;;;;;;10.02;7.68;;;;;;;;;;5058620;28;20194;-79
2021/07/22 11:00:50;;;;;;;10.77;7.45;;;;;;;;;;5060475;28;20032;-83
2021/07/22 11:03:34;;;;;;;12.30;7.70;;;;;;;;;;5061977;28;20059;-83
2021/07/22 11:06:10;;;;;;;10.27;7.28;;;;;;;;;;5085132;28;20100;-82
2021/07/22 11:08:43;;;;;;;10.13;7.80;;;;;;;;;;5068001;28;20062;-85
2021/07/22 11:11:13;;;;;;;13.35;7.82;;;;;;;;;;5059588;28;20127;-84
2021/07/22 11:13:41;;;;;;;9.32;6.75;;;;;;;;;;5056115;28;20032;-84
2021/07/22 11:16:40;;;;;;;8.18;6.68;;;;;;;;;;5052860;28;20048;-84
2021/07/22 11:19:12;;;;;;;10.75;6.95;;;;;;;;;;5057076;28;20048;-85
2021/07/22 11:21:38;;;;;;;7.43;6.60;;;;;;;;;;5059822;28;20092;-84
2021/07/22 11:24:18;;;;;;;8.55;6.35;;;;;;;;;;5042793;28;20506;-84
2021/07/22 11:26:50;;;;;;;11.50;7.45;;;;;;;;;;5058601;28;20052;-84
2021/07/22 11:29:17;;;;;;;11.65;7.00;;;;;;;;;;5059170;28;20029;-84
2021/07/22 11:31:50;;;;;;;7.95;6.25;;;;;;;;;;5042638;28;20128;-84
2021/07/22 11:34:26;;;;;;;7.75;5.82;;;;;;;;;;5058989;28;20363;-84
2021/07/22 11:36:57;;;;;;;7.80;5.25;;;;;;;;;;5041242;28;20043;-84
2021/07/22 11:39:31;;;;;;;9.18;5.35;;;;;;;;;;5041705;28;20025;-84
2021/07/22 11:42:08;;;;;;;8.50;5.13;;;;;;;;;;5058573;28;20123;-84
2021/07/22 11:44:34;;;;;;;8.57;5.68;;;;;;;;;;5066641;28;20041;-84
2021/07/22 11:47:00;;;;;;;9.82;6.03;;;;;;;;;;5041276;28;20033;-84
2021/07/22 11:49:33;;;;;;;13.80;6.05;;;;;;;;;;5056820;28;20079;-84
2021/07/22 11:51:59;;;;;;;8.38;5.30;;;;;;;;;;5040828;28;20033;-84
2021/07/22 11:54:24;;;;;;;9.88;5.30;;;;;;;;;;5056987;28;20040;-84
2021/07/22 11:56:54;;;;;;;13.38;6.30;;;;;;;;;;5058306;28;20040;-84
2021/07/22 11:59:27;;;;;;;6.85;5.53;;;;;;;;;;5057465;28;20037;-83
2021/07/22 12:01:53;;;;;;;7.78;5.47;;;;;;;;;;5080381;28;20037;-82
2021/07/22 12:04:31;;;;;;;12.27;5.57;;;;;;;;;;5066332;28;20037;-82
2021/07/22 12:07:00;;;;;;;7.68;5.57;;;;;;;;;;5083011;28;20029;-81
2021/07/22 12:09:26;;;;;;;6.97;5.05;;;;;;;;;;5048934;28;20029;-80
2021/07/22 12:11:56;;;;;;;9.55;5.30;;;;;;;;;;5050182;28;20077;-80
2021/07/22 12:14:33;;;;;;;6.75;5.28;;;;;;;;;;5061169;28;20488;-80
2021/07/22 12:17:02;;;;;;;8.27;5.20;;;;;;;;;;5068749;28;20056;-80
2021/07/22 12:19:32;;;;;;;7.50;5.43;;;;;;;;;;5069047;28;20033;-80
2021/07/22 12:22:16;;;;;;;7.10;5.40;;;;;;;;;;5069409;28;20040;-81
2021/07/22 12:24:42;;;;;;;6.63;5.35;;;;;;;;;;5062876;28;20056;-80
2021/07/22 12:27:33;;;;;;;9.00;5.57;;;;;;;;;;5069121;28;20037;-80
2021/07/22 12:30:03;;;;;;;8.95;6.28;;;;;;;;;;5070424;28;20037;-80
2021/07/22 12:32:29;;;;;;;7.10;5.75;;;;;;;;;;5069359;28;20048;-80
2021/07/22 12:34:56;;;;;;;8.85;6.00;;;;;;;;;;5070775;28;20028;-81
2021/07/22 12:37:57;;;;;;;9.63;5.60;;;;;;;;;;5079111;28;20032;-81
2021/07/22 12:40:33;;;;;;;9.35;5.43;;;;;;;;;;5079502;28;20037;-81
2021/07/22 12:43:00;;;;;;;9.27;5.35;;;;;;;;;;5075817;28;20127;-80
2021/07/22 12:45:26;;;;;;;8.75;5.78;;;;;;;;;;5112537;28;20028;-81
2021/07/22 12:47:51;;;;;;;7.15;5.63;;;;;;;;;;5098034;28;20038;-80
2021/07/22 12:50:43;;;;;;;8.95;5.90;;;;;;;;;;5114795;28;20479;-80
2021/07/22 12:53:20;;;;;;;8.48;5.82;;;;;;;;;;5114213;28;20039;-81
2021/07/22 12:55:58;;;;;;;8.07;6.07;;;;;;;;;;5097010;28;20036;-81
2021/07/22 12:58:29;;;;;;;9.10;5.90;;;;;;;;;;5096997;28;20024;-81
2021/07/22 13:01:00;;;;;;;7.22;5.80;;;;;;;;;;5113583;28;20058;-80
2021/07/22 13:03:27;;;;;;;7.18;5.72;;;;;;;;;;5095423;28;20036;-81
2021/07/22 13:05:54;;;;;;;7.05;5.40;;;;;;;;;;5093665;28;20036;-80
2021/07/22 13:08:20;;;;;;;9.48;5.97;;;;;;;;;;5081074;28;20047;-83
2021/07/22 13:10:45;;;;;;;11.73;6.20;;;;;;;;;;5083058;28;20036;-79
2021/07/22 13:13:11;;;;;;;9.57;5.53;;;;;;;;;;5082254;28;20051;-82
2021/07/22 13:15:37;;;;;;;9.43;5.88;;;;;;;;;;5080002;28;20120;-83
2021/07/22 13:18:03;;;;;;;9.13;5.63;;;;;;;;;;5082915;28;20035;-82
2021/07/22 13:20:28;;;;;;;10.25;5.97;;;;;;;;;;5063772;28;20040;-81
2021/07/22 13:22:53;;;;;;;6.80;5.47;;;;;;;;;;5061956;28;20123;-80
2021/07/22 13:25:19;;;;;;;7.85;5.70;;;;;;;;;;5061696;28;20052;-81
2021/07/22 13:27:44;;;;;;;7.05;5.78;;;;;;;;;;5062497;28;20039;-83
2021/07/22 13:30:11;;;;;;;7.38;5.57;;;;;;;;;;5061997;28;20032;-83
2021/07/22 13:32:37;;;;;;;6.45;4.95;;;;;;;;;;5080877;28;20036;-83
2021/07/22 13:35:05;;;;;;;8.38;5.30;;;;;;;;;;5062865;28;20036;-82
2021/07/22 13:37:30;;;;;;;14.27;6.20;;;;;;;;;;5081695;28;20093;-83
2021/07/22 13:39:56;;;;;;;6.78;6.05;;;;;;;;;;5063780;28;20029;-81
2021/07/22 13:42:21;;;;;;;6.63;5.45;;;;;;;;;;5083995;28;20453;-82
2021/07/22 13:44:47;;;;;;;8.20;5.80;;;;;;;;;;5071393;28;20376;-82
2021/07/22 13:47:13;;;;;;;9.50;5.95;;;;;;;;;;5068369;28;20060;-84
2021/07/22 13:49:39;;;;;;;8.93;5.53;;;;;;;;;;5062443;28;20067;-81
2021/07/22 13:52:04;;;;;;;6.47;5.72;;;;;;;;;;5077993;28;20033;-81
2021/07/22 13:54:30;;;;;;;6.25;4.88;;;;;;;;;;5078451;28;20471;-82
2021/07/22 13:56:55;;;;;;;31.50;21.83;;;;;;;;;;5077285;28;20036;-82
2021/07/22 13:59:22;;;;;;;10.15;6.97;;;;;;;;;;5080331;28;20479;-81
2021/07/22 14:01:48;;;;;;;7.72;5.35;;;;;;;;;;5078082;28;20033;-81
2021/07/22 14:04:13;;;;;;;6.40;5.10;;;;;;;;;;5062268;28;20024;-82
2021/07/22 14:06:39;;;;;;;6.32;4.90;;;;;;;;;;5078332;28;20036;-82
2021/07/22 14:09:08;;;;;;;6.22;5.00;;;;;;;;;;5078052;28;20036;-82
2021/07/22 14:11:34;;;;;;;5.95;4.90;;;;;;;;;;5080212;28;20043;-82
2021/07/22 14:13:59;;;;;;;5.40;4.60;;;;;;;;;;5057760;28;20025;-84
2021/07/22 14:16:25;;;;;;;5.65;4.78;;;;;;;;;;5059437;28;20434;-79
2021/07/22 14:18:52;;;;;;;6.82;4.57;;;;;;;;;;5077494;28;20113;-82
2021/07/22 14:21:17;;;;;;;6.53;4.88;;;;;;;;;;5078089;28;20032;-81
2021/07/22 14:23:45;;;;;;;7.53;5.13;;;;;;;;;;5073065;28;20052;-77
2021/07/22 14:26:11;;;;;;;5.57;4.57;;;;;;;;;;5057221;28;20043;-76
2021/07/22 14:28:37;;;;;;;9.40;5.38;;;;;;;;;;5079230;28;20516;-80
2021/07/22 14:31:03;;;;;;;5.97;4.88;;;;;;;;;;5086088;28;20096;-80
2021/07/22 14:33:29;;;;;;;6.82;5.05;;;;;;;;;;5074020;28;20058;-80
2021/07/22 14:35:54;;;;;;;8.63;5.05;;;;;;;;;;5070312;28;20302;-79
2021/07/22 14:38:20;;;;;;;6.53;5.13;;;;;;;;;;5079978;28;20039;-82
2021/07/22 14:40:45;;;;;;;8.68;5.18;;;;;;;;;;5071685;28;20075;-81
2021/07/22 14:43:10;;;;;;;6.80;4.90;;;;;;;;;;5067810;28;20483;-84
2021/07/22 14:45:36;;;;;;;6.45;5.03;;;;;;;;;;5045031;28;20037;-86
2021/07/22 14:48:02;;;;;;;9.52;5.30;;;;;;;;;;5058541;28;20407;-79